Time;durP1;ratioP1;P1;durP2;ratioP2;P2;SDS_P1;SDS_P2;PMS_P1;PMS_P2;Temp;Humidity;BMP_temperature;BMP_pressure;BME280_temperature;BME280_humidity;BME280_pressure;Samples;Min_cycle;Max_cycle;Signal;HPM_P1;HPM_P2
2023/12/22 00:00:10;;;;;;;18.93;17.97;;;;;;;-141.02;100.00;39309.28;5092210;28;20237;-74
2023/12/22 00:02:37;;;;;;;18.13;17.13;;;;;;;-141.02;100.00;39301.63;5092490;28;20208;-74
2023/12/22 00:05:04;;;;;;;17.50;16.60;;;;;;;-141.02;100.00;39290.13;5092289;28;20205;-74
2023/12/22 00:07:31;;;;;;;18.27;17.27;;;;;;;-141.02;100.00;39313.13;5092450;28;20200;-75
2023/12/22 00:09:58;;;;;;;17.90;17.00;;;;;;;-141.02;100.00;39309.28;5092530;28;20193;-75
2023/12/22 00:12:26;;;;;;;18.60;17.70;;;;;;;-141.02;100.00;39282.44;5092278;28;20220;-74
2023/12/22 00:14:53;;;;;;;18.83;17.93;;;;;;;-141.02;100.00;39301.63;5092380;28;20276;-75
2023/12/22 00:17:20;;;;;;;20.37;19.37;;;;;;;-141.02;100.00;39324.63;5092403;28;20282;-75
2023/12/22 00:19:47;;;;;;;19.97;18.97;;;;;;;-141.02;100.00;39305.44;5092233;28;20226;-75
2023/12/22 00:22:20;;;;;;;19.50;18.50;;;;;;;-141.02;100.00;39345.72;5092288;28;20225;-76
2023/12/22 00:24:47;;;;;;;18.57;17.57;;;;;;;-141.02;100.00;39339.97;5092027;28;20194;-76
2023/12/22 00:27:14;;;;;;;18.43;17.43;;;;;;;-141.02;100.00;39313.13;5091906;28;20320;-76
2023/12/22 00:29:42;;;;;;;18.30;17.30;;;;;;;-141.02;100.00;39330.38;5091894;28;20205;-76
2023/12/22 00:32:10;;;;;;;18.93;17.93;;;;;;;-141.02;100.00;39301.63;5092251;28;20581;-75
2023/12/22 00:34:37;;;;;;;19.30;18.30;;;;;;;-141.02;100.00;39301.63;5092174;28;20251;-76
2023/12/22 00:37:04;;;;;;;18.80;17.90;;;;;;;-141.02;100.00;39322.72;5091870;28;20200;-76
2023/12/22 00:39:32;;;;;;;19.03;18.03;;;;;;;-141.02;100.00;39341.88;5092061;28;20197;-76
2023/12/22 00:41:59;;;;;;;23.00;21.83;;;;;;;-141.02;100.00;39332.31;5091831;28;20190;-76
2023/12/22 00:44:27;;;;;;;25.60;24.30;;;;;;;-141.02;100.00;39311.22;5092286;28;20343;-76
2023/12/22 00:46:55;;;;;;;19.27;18.27;;;;;;;-141.02;100.00;39315.03;5091734;28;20196;-76
2023/12/22 00:49:21;;;;;;;18.87;17.90;;;;;;;-141.02;100.00;39324.63;5092004;28;20200;-75
2023/12/22 00:51:48;;;;;;;19.07;18.17;;;;;;;-141.02;100.00;39305.44;5091773;28;20247;-76
2023/12/22 00:54:15;;;;;;;18.20;17.30;;;;;;;-141.02;100.00;39297.78;5091690;28;20194;-76
2023/12/22 00:56:42;;;;;;;18.30;17.40;;;;;;;-141.02;100.00;39316.97;5092000;28;20190;-75
2023/12/22 00:59:12;;;;;;;18.40;17.50;;;;;;;-141.02;100.00;39307.38;5091663;28;20189;-75
2023/12/22 01:01:39;;;;;;;18.43;17.53;;;;;;;-141.02;100.00;39328.47;5091879;28;20229;-73
2023/12/22 01:04:08;;;;;;;19.23;18.23;;;;;;;-141.02;100.00;39282.44;5091626;28;20571;-73
2023/12/22 01:06:38;;;;;;;17.50;16.60;;;;;;;-141.02;100.00;39301.63;5091593;28;20216;-75
2023/12/22 01:09:05;;;;;;;18.00;17.00;;;;;;;-141.02;100.00;39320.78;5091603;28;20201;-75
2023/12/22 01:11:32;;;;;;;18.30;17.30;;;;;;;-141.02;100.00;39326.56;5091823;28;20198;-76
2023/12/22 01:13:59;;;;;;;18.97;17.97;;;;;;;-141.02;100.00;39328.47;5091480;28;20202;-78
2023/12/22 01:16:26;;;;;;;18.17;17.27;;;;;;;-141.02;100.00;39328.47;5091873;28;20196;-83
2023/12/22 01:18:53;;;;;;;18.80;17.80;;;;;;;-141.02;100.00;39336.13;5091740;28;20194;-79
2023/12/22 01:21:21;;;;;;;20.77;19.67;;;;;;;-141.02;100.00;39305.44;5091790;28;20234;-76
2023/12/22 01:23:48;;;;;;;20.33;19.23;;;;;;;-141.02;100.00;39332.31;5092622;28;20200;-79
2023/12/22 01:26:15;;;;;;;20.93;19.83;;;;;;;-141.02;100.00;39336.13;5095339;28;20194;-76
2023/12/22 01:28:42;;;;;;;19.10;18.10;;;;;;;-141.02;100.00;39336.13;5095396;28;20197;-79
2023/12/22 01:31:09;;;;;;;18.50;17.50;;;;;;;-141.02;100.00;39338.06;5095163;28;20729;-78
2023/12/22 01:33:36;;;;;;;18.27;17.27;;;;;;;-141.02;100.00;39272.84;5095374;28;20194;-85
2023/12/22 01:36:03;;;;;;;19.00;18.00;;;;;;;-141.02;100.00;39332.31;5095252;28;20193;-83
2023/12/22 01:38:31;;;;;;;19.60;18.50;;;;;;;-141.02;100.00;39316.97;5095430;28;20200;-79
2023/12/22 01:40:58;;;;;;;20.70;19.60;;;;;;;-141.02;100.00;39332.31;5094807;28;20221;-83
2023/12/22 01:43:25;;;;;;;19.93;18.83;;;;;;;-141.02;100.00;39297.78;5094831;28;20194;-78
2023/12/22 01:45:56;;;;;;;20.43;19.33;;;;;;;-141.02;100.00;39313.13;5094774;28;20746;-83
2023/12/22 01:48:24;;;;;;;20.60;19.50;;;;;;;-141.02;100.00;39316.97;5095039;28;20181;-80
2023/12/22 01:50:52;;;;;;;20.20;19.10;;;;;;;-141.02;100.00;39309.28;5094653;28;20680;-80
2023/12/22 01:53:20;;;;;;;19.00;17.90;;;;;;;-141.02;100.00;39318.88;5094904;28;20205;-75
2023/12/22 01:55:51;;;;;;;21.70;20.50;;;;;;;-141.02;100.00;39305.44;5094866;28;20240;-84
2023/12/22 01:58:19;;;;;;;24.20;22.90;;;;;;;-141.02;100.00;39320.78;5094615;28;20569;-83
2023/12/22 02:00:46;;;;;;;19.70;18.67;;;;;;;-141.02;100.00;39332.31;5095004;28;20237;-81
2023/12/22 02:03:14;;;;;;;18.57;17.67;;;;;;;-141.02;100.00;39324.63;5094701;28;20200;-82
2023/12/22 02:05:42;;;;;;;19.20;18.20;;;;;;;-141.02;100.00;39313.13;5094395;28;20285;-83
2023/12/22 02:08:09;;;;;;;20.40;19.30;;;;;;;-141.02;100.00;39293.94;5094699;28;20200;-82
2023/12/22 02:10:37;;;;;;;20.70;19.60;;;;;;;-141.02;100.00;39301.63;5094637;28;20193;-74
2023/12/22 02:13:05;;;;;;;19.20;18.20;;;;;;;-141.02;100.00;39290.13;5094280;28;20277;-76
2023/12/22 02:15:33;;;;;;;17.80;16.80;;;;;;;-141.02;100.00;39313.13;5094168;28;20200;-78
2023/12/22 02:18:07;;;;;;;18.60;17.60;;;;;;;-141.02;100.00;39313.13;5094509;28;20194;-80
2023/12/22 02:20:34;;;;;;;17.80;16.80;;;;;;;-141.02;100.00;39313.13;5094347;28;20584;-81
2023/12/22 02:23:02;;;;;;;18.33;17.43;;;;;;;-141.02;100.00;39309.28;5094317;28;20202;-80
2023/12/22 02:25:29;;;;;;;18.70;17.70;;;;;;;-141.02;100.00;39301.63;5094042;28;20196;-81
2023/12/22 02:28:02;;;;;;;18.23;17.33;;;;;;;-141.02;100.00;39345.72;5093687;28;20610;-80
2023/12/22 02:30:35;;;;;;;18.87;17.87;;;;;;;-141.02;100.00;39313.13;5094017;28;20577;-80
2023/12/22 02:33:05;;;;;;;18.20;17.20;;;;;;;-141.02;100.00;39305.44;5093809;28;20204;-81
2023/12/22 02:35:36;;;;;;;17.67;16.67;;;;;;;-141.02;100.00;39316.97;5094089;28;20186;-80
2023/12/22 02:38:06;;;;;;;17.90;16.90;;;;;;;-141.02;100.00;39301.63;5093697;28;20667;-80
2023/12/22 02:40:34;;;;;;;18.40;17.40;;;;;;;-141.02;100.00;39278.59;5093636;28;20243;-81
2023/12/22 02:43:02;;;;;;;18.87;17.87;;;;;;;-141.02;100.00;39316.97;5093930;28;20194;-81
2023/12/22 02:45:30;;;;;;;18.00;17.00;;;;;;;-141.02;100.00;39313.13;5094144;28;20197;-81
2023/12/22 02:47:57;;;;;;;17.40;16.50;;;;;;;-141.02;100.00;39301.63;5093513;28;20190;-80
2023/12/22 02:50:24;;;;;;;17.40;16.40;;;;;;;-141.02;100.00;39292.03;5093786;28;20193;-81
2023/12/22 02:52:51;;;;;;;17.50;16.50;;;;;;;-141.02;100.00;39315.03;5093477;28;20190;-78
2023/12/22 02:55:19;;;;;;;17.37;16.43;;;;;;;-141.02;100.00;39328.47;5093713;28;20190;-80
2023/12/22 02:57:46;;;;;;;16.93;16.00;;;;;;;-141.02;100.00;39332.31;5093353;28;20204;-81
2023/12/22 03:00:13;;;;;;;17.20;16.20;;;;;;;-141.02;100.00;39299.69;5093201;28;20200;-79
2023/12/22 03:02:40;;;;;;;17.20;16.30;;;;;;;-141.02;100.00;39290.13;5093606;28;20194;-80
2023/12/22 03:05:07;;;;;;;20.53;19.47;;;;;;;-141.02;100.00;39297.78;5093257;28;20200;-78
2023/12/22 03:07:34;;;;;;;21.30;20.20;;;;;;;-141.02;100.00;39292.03;5093466;28;20197;-79
2023/12/22 03:10:01;;;;;;;18.20;17.20;;;;;;;-141.02;100.00;39313.13;5093390;28;20285;-77
2023/12/22 03:12:30;;;;;;;20.07;18.97;;;;;;;-141.02;100.00;39324.63;5093424;28;20284;-78
2023/12/22 03:14:57;;;;;;;18.30;17.30;;;;;;;-141.02;100.00;39290.13;5093353;28;20201;-79
2023/12/22 03:17:24;;;;;;;17.13;16.13;;;;;;;-141.02;100.00;39318.88;5093209;28;20198;-77
2023/12/22 03:19:51;;;;;;;17.70;16.70;;;;;;;-141.02;100.00;39326.56;5093354;28;20219;-80
2023/12/22 03:22:18;;;;;;;17.87;16.90;;;;;;;-141.02;100.00;39313.13;5092830;28;20226;-76
2023/12/22 03:24:45;;;;;;;17.53;16.63;;;;;;;-141.02;100.00;39316.97;5092905;28;20671;-78
2023/12/22 03:27:16;;;;;;;18.33;17.43;;;;;;;-141.02;100.00;39338.06;5092654;28;20240;-76
2023/12/22 03:29:44;;;;;;;17.60;16.80;;;;;;;-141.02;100.00;39351.47;5093142;28;20267;-78
2023/12/22 03:32:11;;;;;;;17.70;16.90;;;;;;;-141.02;100.00;39355.31;5093040;28;20194;-78
2023/12/22 03:34:38;;;;;;;18.37;17.47;;;;;;;-141.02;100.00;39316.97;5092702;28;20216;-79
2023/12/22 03:37:05;;;;;;;16.73;15.93;;;;;;;-141.02;100.00;39315.03;5092620;28;20194;-79
2023/12/22 03:39:32;;;;;;;17.03;16.13;;;;;;;-141.02;100.00;39305.44;5092602;28;20200;-77
2023/12/22 03:41:59;;;;;;;17.30;16.40;;;;;;;-141.02;100.00;39309.28;5092979;28;20235;-78
2023/12/22 03:44:26;;;;;;;17.33;16.47;;;;;;;-141.02;100.00;39307.38;5092504;28;20212;-77
2023/12/22 03:46:54;;;;;;;16.23;15.53;;;;;;;-141.02;100.00;39320.78;5092052;28;20194;-78
2023/12/22 03:49:21;;;;;;;15.80;15.10;;;;;;;-141.02;100.00;39316.97;5092492;28;20237;-77
2023/12/22 03:51:48;;;;;;;15.27;14.67;;;;;;;-141.02;100.00;39316.97;5092998;28;20310;-77
2023/12/22 03:54:17;;;;;;;14.87;14.27;;;;;;;-141.02;100.00;39316.97;5092706;28;20603;-77
2023/12/22 03:56:45;;;;;;;14.27;13.77;;;;;;;-141.02;100.00;39274.78;5092764;28;20640;-78
2023/12/22 03:59:13;;;;;;;14.43;13.93;;;;;;;-141.02;100.00;39282.44;5092583;28;20209;-75
2023/12/22 04:01:40;;;;;;;14.30;13.80;;;;;;;-141.02;100.00;39261.34;5092471;28;20267;-78
2023/12/22 04:04:08;;;;;;;18.57;17.73;;;;;;;-141.02;100.00;39255.59;5092314;28;20200;-75
2023/12/22 04:06:39;;;;;;;13.17;12.77;;;;;;;-141.02;100.00;39198.06;5092218;28;20194;-76
2023/12/22 04:09:06;;;;;;;13.50;13.10;;;;;;;-141.02;100.00;39240.25;5092505;28;20567;-77
2023/12/22 04:11:34;;;;;;;13.97;13.47;;;;;;;-141.02;100.00;39297.78;5092663;28;20284;-74
2023/12/22 04:14:01;;;;;;;14.00;13.50;;;;;;;-141.02;100.00;39178.88;5092179;28;20664;-77
2023/12/22 04:16:28;;;;;;;17.10;16.40;;;;;;;-141.02;100.00;39211.50;5092093;28;20591;-76
2023/12/22 04:18:56;;;;;;;18.80;18.00;;;;;;;-141.02;100.00;39228.75;5092037;28;20200;-74
2023/12/22 04:21:24;;;;;;;17.20;16.60;;;;;;;-141.02;100.00;39199.97;5092299;28;20260;-74
2023/12/22 04:23:51;;;;;;;15.80;15.20;;;;;;;-141.02;100.00;39182.72;5092646;28;20200;-74
2023/12/22 04:26:18;;;;;;;15.77;15.17;;;;;;;-141.02;100.00;39205.72;5092142;28;20194;-74
2023/12/22 04:28:45;;;;;;;16.37;15.77;;;;;;;-141.02;100.00;39198.06;5092671;28;20201;-74
2023/12/22 04:31:12;;;;;;;15.80;15.20;;;;;;;-141.02;100.00;39188.47;5092554;28;20202;-74
2023/12/22 04:33:39;;;;;;;16.37;15.77;;;;;;;-141.02;100.00;39190.38;5092184;28;20193;-71
2023/12/22 04:36:07;;;;;;;16.50;15.90;;;;;;;-141.02;100.00;39186.56;5092240;28;20194;-71
2023/12/22 04:38:35;;;;;;;15.90;15.40;;;;;;;-141.02;100.00;39182.72;5092175;28;20220;-70
2023/12/22 04:41:03;;;;;;;15.83;15.30;;;;;;;-141.02;100.00;39205.72;5091730;28;20320;-73
2023/12/22 04:43:29;;;;;;;16.27;15.67;;;;;;;-141.02;100.00;39232.59;5092150;28;20193;-73
2023/12/22 04:45:56;;;;;;;16.53;15.93;;;;;;;-141.02;100.00;39178.88;5092132;28;20278;-72
2023/12/22 04:48:23;;;;;;;17.07;16.47;;;;;;;-141.02;100.00;39136.69;5092076;28;20250;-72
2023/12/22 04:50:50;;;;;;;17.97;17.27;;;;;;;-141.02;100.00;39148.19;5091735;28;20198;-72
2023/12/22 04:53:18;;;;;;;17.83;17.13;;;;;;;-141.02;100.00;39144.38;5091777;28;20710;-72
2023/12/22 04:55:46;;;;;;;17.70;17.00;;;;;;;-141.02;100.00;39157.78;5091991;28;20194;-72
2023/12/22 04:58:13;;;;;;;18.23;17.53;;;;;;;-141.02;100.00;39146.28;5091665;28;20200;-73
2023/12/22 05:00:40;;;;;;;18.60;17.80;;;;;;;-141.02;100.00;39136.69;5095491;28;20651;-73
2023/12/22 05:03:07;;;;;;;17.47;16.77;;;;;;;-141.02;100.00;39144.38;5095598;28;20663;-73
2023/12/22 05:05:33;;;;;;;17.00;16.30;;;;;;;-141.02;100.00;39144.38;5095893;28;20200;-73
2023/12/22 05:08:00;;;;;;;17.00;16.30;;;;;;;-141.02;100.00;39144.38;5095883;28;20220;-73
2023/12/22 05:10:27;;;;;;;16.37;15.77;;;;;;;-141.02;100.00;39178.88;5095972;28;20545;-72
2023/12/22 05:12:56;;;;;;;14.83;14.33;;;;;;;-141.02;100.00;39175.06;5095408;28;20746;-73
2023/12/22 05:15:23;;;;;;;16.33;15.73;;;;;;;-141.02;100.00;39186.56;5095576;28;20198;-73
2023/12/22 05:17:49;;;;;;;16.17;15.57;;;;;;;-141.02;100.00;39186.56;5095332;28;20194;-73
2023/12/22 05:20:16;;;;;;;17.57;16.87;;;;;;;-141.02;100.00;39178.88;5095877;28;20190;-73
2023/12/22 05:22:43;;;;;;;17.50;16.80;;;;;;;-141.02;100.00;39190.38;5095462;28;20316;-73
2023/12/22 05:25:11;;;;;;;18.17;17.47;;;;;;;-141.02;100.00;39221.06;5095534;28;20190;-73
2023/12/22 05:27:38;;;;;;;17.60;16.90;;;;;;;-141.02;100.00;39152.03;5094878;28;20613;-74
2023/12/22 05:30:08;;;;;;;16.53;15.93;;;;;;;-141.02;100.00;39182.72;5095364;28;20739;-74
2023/12/22 05:32:35;;;;;;;19.27;18.47;;;;;;;-141.02;100.00;39219.16;5095340;28;20278;-74
2023/12/22 05:35:02;;;;;;;18.63;17.83;;;;;;;-141.02;100.00;39201.91;5095042;28;20204;-74
2023/12/22 05:37:29;;;;;;;17.27;16.57;;;;;;;-141.02;100.00;39190.38;5094967;28;20703;-74
2023/12/22 05:39:56;;;;;;;16.73;16.13;;;;;;;-141.02;100.00;39217.25;5094896;28;20196;-75
2023/12/22 05:42:23;;;;;;;19.23;18.43;;;;;;;-141.02;100.00;39224.91;5094732;28;20229;-75
2023/12/22 05:44:51;;;;;;;18.73;18.03;;;;;;;-141.02;100.00;39213.41;5094793;28;20200;-75
2023/12/22 05:47:19;;;;;;;15.53;15.03;;;;;;;-141.02;100.00;39224.91;5095293;28;20198;-74
2023/12/22 05:49:46;;;;;;;14.80;14.30;;;;;;;-141.02;100.00;39263.25;5094723;28;20650;-75
2023/12/22 05:52:13;;;;;;;15.63;15.13;;;;;;;-141.02;100.00;39249.84;5094894;28;20683;-75
2023/12/22 05:54:40;;;;;;;15.20;14.70;;;;;;;-141.02;100.00;39290.13;5094916;28;20227;-76
2023/12/22 05:57:07;;;;;;;15.00;14.50;;;;;;;-141.02;100.00;39332.31;5094861;28;20221;-76
2023/12/22 05:59:35;;;;;;;14.90;14.40;;;;;;;-141.02;100.00;39324.63;5094834;28;20194;-76
2023/12/22 06:02:02;;;;;;;14.57;14.07;;;;;;;-141.02;100.00;39299.69;5094675;28;20233;-77
2023/12/22 06:04:31;;;;;;;13.80;13.40;;;;;;;-141.02;100.00;39357.22;5094441;28;20251;-75
2023/12/22 06:06:58;;;;;;;13.87;13.47;;;;;;;-141.02;100.00;39387.91;5094463;28;20281;-77
2023/12/22 06:09:25;;;;;;;13.70;13.30;;;;;;;-141.02;100.00;39422.44;5093961;28;20664;-78
2023/12/22 06:11:52;;;;;;;12.60;12.20;;;;;;;-141.02;100.00;39531.75;5094290;28;20204;-79
2023/12/22 06:14:19;;;;;;;12.37;11.97;;;;;;;-141.02;100.00;39796.44;5094551;28;20204;-80
2023/12/22 06:16:46;;;;;;;13.27;12.77;;;;;;;-141.02;100.00;40187.72;5094526;28;20351;-78
2023/12/22 06:19:14;;;;;;;12.70;12.30;;;;;;;-141.02;100.00;40504.25;5094144;28;20785;-79
2023/12/22 06:21:42;;;;;;;12.83;12.43;;;;;;;-141.02;100.00;40669.25;5094011;28;20608;-78
2023/12/22 06:24:09;;;;;;;12.90;12.50;;;;;;;-141.02;100.00;40698.00;5094047;28;20194;-80
2023/12/22 06:26:36;;;;;;;13.00;12.60;;;;;;;-141.02;100.00;40686.50;5094110;28;20614;-78
2023/12/22 06:29:04;;;;;;;12.40;12.00;;;;;;;-141.02;100.00;40625.13;5094070;28;20271;-80
2023/12/22 06:31:31;;;;;;;12.57;12.17;;;;;;;-141.02;100.00;40655.81;5093891;28;20676;-76
2023/12/22 06:34:01;;;;;;;13.20;12.70;;;;;;;-141.02;100.00;40722.97;5094154;28;20190;-80
2023/12/22 06:36:29;;;;;;;13.13;12.63;;;;;;;-141.02;100.00;40736.38;5093896;28;20243;-82
2023/12/22 06:38:58;;;;;;;13.10;12.60;;;;;;;-141.02;100.00;40740.22;5094031;28;20777;-79
2023/12/22 06:41:27;;;;;;;13.10;12.60;;;;;;;-141.02;100.00;40711.44;5093879;28;20201;-82
2023/12/22 06:43:54;;;;;;;13.40;12.90;;;;;;;-141.02;100.00;40751.72;5093893;28;20201;-81
2023/12/22 06:46:25;;;;;;;12.70;12.30;;;;;;;-141.02;100.00;40767.09;5093555;28;20190;-80
2023/12/22 06:48:52;;;;;;;12.40;12.00;;;;;;;-141.02;100.00;40901.38;5094143;28;20226;-79
2023/12/22 06:51:20;;;;;;;12.27;11.87;;;;;;;-141.02;100.00;40941.69;5093724;28;20216;-79
2023/12/22 06:53:47;;;;;;;12.10;11.70;;;;;;;-141.02;100.00;41016.50;5093423;28;20197;-80
2023/12/22 06:56:20;;;;;;;11.90;11.50;;;;;;;-141.02;100.00;41143.16;5093389;28;20194;-81
2023/12/22 06:58:48;;;;;;;12.20;11.80;;;;;;;-141.02;100.00;41288.97;5094044;28;20225;-81
2023/12/22 07:01:20;;;;;;;12.87;12.47;;;;;;;-141.02;100.00;41338.88;5093545;28;20198;-81
2023/12/22 07:03:48;;;;;;;13.07;12.67;;;;;;;-141.02;100.00;41413.69;5093319;28;20194;-80
2023/12/22 07:06:15;;;;;;;14.30;13.80;;;;;;;-141.02;100.00;41361.91;5093208;28;20247;-78
2023/12/22 07:08:42;;;;;;;15.80;15.20;;;;;;;-141.02;100.00;41312.00;5093482;28;20193;-78
2023/12/22 07:11:10;;;;;;;19.37;18.57;;;;;;;-141.02;100.00;41288.97;5093191;28;20198;-78
2023/12/22 07:13:38;;;;;;;20.13;19.33;;;;;;;-141.02;100.00;41375.31;5093103;28;20663;-80
2023/12/22 07:16:06;;;;;;;21.83;20.93;;;;;;;-141.02;100.00;41361.91;5093355;28;20276;-75
2023/12/22 07:18:33;;;;;;;23.90;22.80;;;;;;;-141.02;100.00;41488.53;5093275;28;20204;-75
2023/12/22 07:21:01;;;;;;;25.67;24.37;;;;;;;-141.02;100.00;41603.69;5092941;28;20194;-75
2023/12/22 07:23:28;;;;;;;26.17;24.87;;;;;;;-141.02;100.00;41768.72;5092575;28;20243;-74
2023/12/22 07:25:55;;;;;;;24.23;23.13;;;;;;;-141.02;100.00;41972.16;5093170;28;20204;-74
2023/12/22 07:28:22;;;;;;;22.80;21.70;;;;;;;-141.02;100.00;42045.09;5092778;28;20256;-72
2023/12/22 07:30:50;;;;;;;23.03;21.93;;;;;;;-141.02;100.00;42175.59;5092797;28;20649;-73
2023/12/22 07:33:17;;;;;;;22.27;21.27;;;;;;;-141.02;100.00;42277.34;5092991;28;20280;-71
2023/12/22 07:35:44;;;;;;;21.90;20.90;;;;;;;-141.02;100.00;42396.34;5092979;28;20549;-72
2023/12/22 07:38:11;;;;;;;22.00;21.00;;;;;;;-141.02;100.00;42674.69;5092709;28;20190;-73
2023/12/22 07:40:38;;;;;;;21.67;20.77;;;;;;;-141.02;100.00;42824.41;5092910;28;20587;-71
2023/12/22 07:43:05;;;;;;;20.00;19.17;;;;;;;-141.02;100.00;42801.38;5092825;28;20233;-71
2023/12/22 07:45:32;;;;;;;19.20;18.30;;;;;;;-141.02;100.00;42853.22;5092843;28;20631;-72
2023/12/22 07:48:00;;;;;;;19.00;18.10;;;;;;;-141.02;100.00;42882.00;5092769;28;20193;-72
2023/12/22 07:50:27;;;;;;;19.50;18.60;;;;;;;-141.02;100.00;43050.97;5092994;28;20229;-71
2023/12/22 07:52:54;;;;;;;18.23;17.43;;;;;;;-141.02;100.00;43183.44;5092688;28;20565;-72
2023/12/22 07:55:21;;;;;;;18.20;17.40;;;;;;;-141.02;100.00;43260.22;5092327;28;20285;-72
2023/12/22 07:57:48;;;;;;;18.20;17.40;;;;;;;-141.02;100.00;43423.44;5092351;28;20570;-72
2023/12/22 08:00:16;;;;;;;17.47;16.77;;;;;;;-141.02;100.00;43630.81;5092288;28;20193;-72
2023/12/22 08:02:42;;;;;;;17.73;16.93;;;;;;;-141.02;100.00;43849.72;5092274;28;20765;-72
2023/12/22 08:05:12;;;;;;;17.30;16.60;;;;;;;-141.02;100.00;44124.34;5092446;28;20759;-72
2023/12/22 08:07:39;;;;;;;16.80;16.10;;;;;;;-141.02;100.00;44260.69;5092541;28;20190;-72
2023/12/22 08:10:07;;;;;;;16.80;16.10;;;;;;;-141.02;100.00;44406.66;5092526;28;20189;-72
2023/12/22 08:12:34;;;;;;;17.00;16.30;;;;;;;-141.02;100.00;44689.00;5092394;28;20630;-72
2023/12/22 08:15:00;;;;;;;16.50;15.80;;;;;;;-141.02;100.00;45148.09;5092150;28;20731;-71
2023/12/22 08:17:28;;;;;;;16.87;16.17;;;;;;;-141.02;100.00;45536.19;5092045;28;20193;-73
2023/12/22 08:19:56;;;;;;;17.17;16.37;;;;;;;-141.02;100.00;45978.13;5092329;28;20200;-73
2023/12/22 08:22:24;;;;;;;16.90;16.10;;;;;;;-141.02;100.00;46339.38;5092029;28;20236;-72
2023/12/22 08:24:51;;;;;;;17.60;16.80;;;;;;;-141.02;100.00;46746.81;5092571;28;20199;-73
2023/12/22 08:27:18;;;;;;;17.37;16.57;;;;;;;-141.02;100.00;47719.47;5092270;28;20324;-73
2023/12/22 08:29:45;;;;;;;17.40;16.60;;;;;;;-141.02;100.00;48350.13;5091989;28;20288;-73
2023/12/22 08:32:12;;;;;;;17.43;16.63;;;;;;;-141.02;100.00;49138.59;5092326;28;20229;-72
2023/12/22 08:34:39;;;;;;;16.77;16.07;;;;;;;-141.02;100.00;50500.59;5096473;28;20193;-73
2023/12/22 08:37:06;;;;;;;17.90;17.10;;;;;;;-141.02;100.00;51458.94;5096367;28;20277;-73
2023/12/22 08:39:34;;;;;;;17.53;16.73;;;;;;;-141.02;100.00;52121.09;5096395;28;20251;-72
2023/12/22 08:42:01;;;;;;;16.90;16.10;;;;;;;-141.02;100.00;52548.50;5096250;28;20284;-73
2023/12/22 08:44:28;;;;;;;15.90;15.20;;;;;;;-141.02;100.00;52791.09;5096262;28;20194;-73
2023/12/22 08:46:55;;;;;;;16.17;15.47;;;;;;;-141.02;100.00;53341.78;5096177;28;20290;-72
2023/12/22 08:49:22;;;;;;;15.50;14.90;;;;;;;-141.02;100.00;52744.88;5096756;28;20201;-72
2023/12/22 08:51:49;;;;;;;16.03;15.33;;;;;;;-141.02;100.00;52240.47;5096159;28;20223;-73
2023/12/22 08:54:16;;;;;;;16.60;15.90;;;;;;;-141.02;100.00;52985.56;5096123;28;20193;-73
2023/12/22 08:56:44;;;;;;;16.40;15.70;;;;;;;-141.02;100.00;54813.38;5096046;28;20200;-74
2023/12/22 08:59:12;;;;;;;16.00;15.30;;;;;;;-141.02;100.00;55749.81;5096032;28;20273;-73
2023/12/22 09:01:40;;;;;;;15.90;15.20;;;;;;;-141.02;100.00;55824.97;5095642;28;20202;-74
2023/12/22 09:04:07;;;;;;;15.40;14.70;;;;;;;-141.02;100.00;56324.16;5095849;28;20221;-74
2023/12/22 09:06:34;;;;;;;15.40;14.80;;;;;;;-141.02;100.00;57920.44;5095799;28;20200;-73
2023/12/22 09:09:01;;;;;;;15.07;14.47;;;;;;;-141.02;100.00;59228.09;5095854;28;20194;-74
2023/12/22 09:11:27;;;;;;;15.20;14.60;;;;;;;-141.02;100.00;59475.03;5095762;28;20200;-72
2023/12/22 09:13:55;;;;;;;14.80;14.20;;;;;;;-141.02;100.00;58981.19;5095380;28;20678;-73
2023/12/22 09:16:23;;;;;;;14.53;13.93;;;;;;;-141.02;100.00;58734.28;5095615;28;20205;-73
2023/12/22 09:18:51;;;;;;;14.70;14.10;;;;;;;-141.02;100.00;58487.41;5095665;28;20248;-74
2023/12/22 09:21:18;;;;;;;14.13;13.63;;;;;;;-141.02;100.00;58487.41;5095319;28;20233;-73
2023/12/22 09:23:46;;;;;;;14.83;14.23;;;;;;;-141.02;100.00;59228.09;5095449;28;20230;-74
2023/12/22 09:26:13;;;;;;;14.00;13.50;;;;;;;-141.02;100.00;58487.41;5095812;28;20217;-74
2023/12/22 09:28:40;;;;;;;13.60;13.10;;;;;;;-141.02;100.00;57993.72;5095013;28;20707;-73
2023/12/22 09:31:10;;;;;;;14.33;13.83;;;;;;;-141.02;100.00;59228.09;5095138;28;20204;-74
2023/12/22 09:33:37;;;;;;;13.97;13.47;;;;;;;-141.02;100.00;59968.94;5095015;28;20572;-74
2023/12/22 09:36:05;;;;;;;13.43;12.97;;;;;;;-141.02;100.00;60462.94;5095308;28;20198;-72
2023/12/22 09:38:32;;;;;;;13.30;12.80;;;;;;;-141.02;100.00;60709.94;5095231;28;20290;-72
2023/12/22 09:40:59;;;;;;;12.93;12.53;;;;;;;-141.02;100.00;62439.59;5095168;28;20219;-71
2023/12/22 09:43:26;;;;;;;13.07;12.67;;;;;;;-141.02;100.00;62933.94;5095357;28;20229;-72
2023/12/22 09:45:54;;;;;;;12.93;12.53;;;;;;;-141.02;100.00;62439.59;5094383;28;20197;-72
2023/12/22 09:48:27;;;;;;;12.83;12.43;;;;;;;-141.02;100.00;62192.44;5095065;28;20205;-72
2023/12/22 09:50:55;;;;;;;13.77;13.27;;;;;;;-141.02;100.00;62439.59;5094734;28;20193;-72
2023/12/22 09:53:22;;;;;;;13.20;12.80;;;;;;;-141.02;100.00;62933.94;5094697;28;20686;-72
2023/12/22 09:55:50;;;;;;;12.73;12.33;;;;;;;-141.02;100.00;62933.94;5094978;28;20198;-72
2023/12/22 09:58:18;;;;;;;12.87;12.47;;;;;;;-141.02;100.00;62933.94;5094942;28;20276;-72
2023/12/22 10:00:46;;;;;;;13.40;13.00;;;;;;;-141.02;100.00;63428.38;5094778;28;20674;-72
2023/12/22 10:06:36;;;;;;;13.93;13.50;;;;;;;-141.02;100.00;66643.84;5094886;28;20185;-72
2023/12/22 10:09:11;;;;;;;13.10;12.70;;;;;;;-141.02;100.00;67386.28;5094432;28;20225;-71
2023/12/22 10:11:38;;;;;;;12.17;11.77;;;;;;;-141.02;100.00;67138.78;5094641;28;20208;-72
2023/12/22 10:14:07;;;;;;;12.37;11.97;;;;;;;-141.02;100.00;67386.28;5094618;28;20284;-72
2023/12/22 10:16:34;;;;;;;12.30;11.90;;;;;;;-141.02;100.00;66891.31;5095075;28;20285;-72
2023/12/22 10:19:01;;;;;;;13.20;12.80;;;;;;;-141.02;100.00;67881.38;5094202;28;20233;-73
2023/12/22 10:21:30;;;;;;;12.90;12.50;;;;;;;-141.02;100.00;68376.50;5094462;28;20273;-73
2023/12/22 10:23:59;;;;;;;13.03;12.63;;;;;;;-141.02;100.00;68128.91;5094326;28;20251;-73
2023/12/22 10:26:25;;;;;;;12.33;11.93;;;;;;;-141.02;100.00;67881.38;5094129;28;20202;-72
2023/12/22 10:29:03;;;;;;;12.00;11.60;;;;;;;-141.02;100.00;67881.38;5094361;28;20193;-72
2023/12/22 10:31:40;;;;;;;12.20;11.80;;;;;;;-141.02;100.00;67881.38;5093930;28;20288;-73
2023/12/22 10:34:07;;;;;;;12.20;11.80;;;;;;;-141.02;100.00;67386.28;5093904;28;20220;-73
2023/12/22 10:36:35;;;;;;;12.17;11.77;;;;;;;-141.02;100.00;66891.31;5094124;28;20197;-73
2023/12/22 10:39:03;;;;;;;11.70;11.30;;;;;;;-141.02;100.00;66148.94;5093827;28;20194;-73
2023/12/22 10:41:30;;;;;;;11.80;11.40;;;;;;;-141.02;100.00;66148.94;5093729;28;20546;-73
2023/12/22 10:43:59;;;;;;;11.30;11.00;;;;;;;-141.02;100.00;64912.06;5093534;28;20316;-73
2023/12/22 10:46:26;;;;;;;11.73;11.37;;;;;;;-141.02;100.00;61945.31;5093720;28;20285;-73
2023/12/22 10:48:54;;;;;;;12.50;12.10;;;;;;;-141.02;100.00;61204.03;5094488;28;20283;-73
2023/12/22 10:51:21;;;;;;;12.73;12.33;;;;;;;-141.02;100.00;59475.03;5093589;28;20548;-74
2023/12/22 10:53:48;;;;;;;13.37;12.93;;;;;;;-141.02;100.00;59189.50;5093577;28;20236;-74
2023/12/22 10:56:16;;;;;;;12.70;12.30;;;;;;;-141.02;100.00;61204.03;5092747;28;20273;-74
2023/12/22 10:58:45;;;;;;;12.10;11.70;;;;;;;-141.02;100.00;62686.75;5094010;28;20237;-74